Pagina principale
METAR-TAF:

METAR-TAF

Aeroporti :

Buochs, Svizzera

latitudine: 46-58-28N, longitudine: 8-23-49E, altezza: 449 m

Osservazione

Il bollettino è stato emesso 40 minuti fa, alle 09:20 UTC
Vento 5 kt da sud/sud-ovest
Temperature -1°C
Umidità 64%
Pressione 1022 hPa
Visibilità 10 km o più
nessuna nube inferiore a 1500 m e nessun cumulonembo

METAR: LSZC 120920Z AUTO 21005KT CAVOK M01/M07 Q1022

Ora: 11:00 (10:00 UTC)

Previsione

Il bollettino è stato emesso 1 ora e 35 minuti fa, alle 08:25 UTC
Previsione valida dal 12 alle 09 UTC al 12 alle 18 UTC
Vento 3 kt da direzioni variabili
Visibilità 10 km o più
nessuna nube inferiore a 1500 m e nessun cumulonembo
Probabilità 30% :
Temporaneamente
dal 12 alle 12 UTC al 12 alle 18 UTC
Visibilità 10 km o più
Poco nuvoloso ad un'altezza di 6000 ft

TAF: LSZC 120825Z 1209/1218 VRB03KT CAVOK PROB30 TEMPO 1212/1218 9999 FEW060

Osservazioni e previsioni meteorologiche di più di 4000 aeroporti (messaggi METAR e TAF).

Le stazioni disponibili sono rappresentate dai dischi gialli e rossi sulla carta.

Puntare il mouse per vedere il nome della stazione.

Clicca sopra per visualizzare le osservazioni e previsioni meteorologiche.

Per cambiare la mappa : fare clic sui pulsanti verdi con una croce nera per ingrandire, il pulsante verde con un trattino per diminuire, o sulla freccia verde per le mappe adiacenti.


METAR-TAF: